createdAt,value
2023-01-22T00:02:06.417Z,1.03
2023-01-22T00:04:33.019Z,1.03
2023-01-22T00:06:59.626Z,1.03
2023-01-22T00:09:26.087Z,1.02
2023-01-22T00:11:52.686Z,1.01
2023-01-22T00:14:19.150Z,0.99
2023-01-22T00:16:45.643Z,0.97
2023-01-22T00:19:12.151Z,0.99
2023-01-22T00:21:38.562Z,1.07
2023-01-22T00:24:05.190Z,1.03
2023-01-22T00:26:31.809Z,1.02
2023-01-22T00:28:58.297Z,1.04
2023-01-22T00:31:24.794Z,0.99
2023-01-22T00:33:51.275Z,0.97
2023-01-22T00:36:19.675Z,0.97
2023-01-22T00:38:46.633Z,0.96
2023-01-22T00:41:14.451Z,1.04
2023-01-22T00:43:41.157Z,0.98
2023-01-22T00:46:09.601Z,0.97
2023-01-22T00:48:36.681Z,0.97
2023-01-22T00:51:04.122Z,1.02
2023-01-22T00:53:30.710Z,1.21
2023-01-22T00:56:00.153Z,1.30
2023-01-22T00:58:27.532Z,1.33
2023-01-22T01:00:54.511Z,1.33
2023-01-22T01:03:27.472Z,1.27
2023-01-22T01:05:54.979Z,1.09
2023-01-22T01:08:22.446Z,1.10
2023-01-22T01:10:48.901Z,1.20
2023-01-22T01:13:15.416Z,1.23
2023-01-22T01:15:43.226Z,1.16
2023-01-22T01:18:12.952Z,1.02
2023-01-22T01:20:39.592Z,0.91
2023-01-22T01:23:06.250Z,0.89
2023-01-22T01:25:32.748Z,0.91
2023-01-22T01:27:59.755Z,0.87
2023-01-22T01:30:26.178Z,0.94
2023-01-22T01:32:52.578Z,1.00
2023-01-22T01:35:19.594Z,1.04
2023-01-22T01:37:46.038Z,1.00
2023-01-22T01:40:12.909Z,0.94
2023-01-22T01:42:41.897Z,1.00
2023-01-22T01:45:25.193Z,1.16
2023-01-22T01:48:12.782Z,1.16
2023-01-22T01:50:42.584Z,1.14
2023-01-22T01:53:09.822Z,1.15
2023-01-22T01:55:39.458Z,1.21
2023-01-22T01:58:11.561Z,1.18
2023-01-22T02:00:41.142Z,1.17
2023-01-22T02:03:07.574Z,1.21
2023-01-22T02:05:38.449Z,1.23
2023-01-22T02:08:07.110Z,1.25
2023-01-22T02:10:33.552Z,1.20
2023-01-22T02:13:03.293Z,1.22
2023-01-22T02:15:29.838Z,1.23
2023-01-22T02:17:56.253Z,1.11
2023-01-22T02:20:22.724Z,1.16
2023-01-22T02:22:49.872Z,1.24
2023-01-22T02:25:16.864Z,1.33
2023-01-22T02:27:43.296Z,1.27
2023-01-22T02:30:10.320Z,1.18
2023-01-22T02:32:36.734Z,1.18
2023-01-22T02:35:03.235Z,1.23
2023-01-22T02:37:30.491Z,1.25
2023-01-22T02:39:56.881Z,1.20
2023-01-22T02:42:23.307Z,1.25
2023-01-22T02:44:51.632Z,1.32
2023-01-22T02:47:18.058Z,1.30
2023-01-22T02:49:44.480Z,1.37
2023-01-22T02:52:10.950Z,1.34
2023-01-22T02:54:37.395Z,1.32
2023-01-22T02:57:03.954Z,1.33
2023-01-22T02:59:30.429Z,1.36
2023-01-22T03:01:57.287Z,1.41
2023-01-22T03:04:23.825Z,1.42
2023-01-22T03:06:50.214Z,1.43
2023-01-22T03:09:17.765Z,1.41
2023-01-22T03:11:46.551Z,1.42
2023-01-22T03:14:31.866Z,1.36
2023-01-22T03:17:17.572Z,1.19
2023-01-22T03:20:02.398Z,1.13
2023-01-22T03:22:29.594Z,1.01
2023-01-22T03:24:58.536Z,1.03
2023-01-22T03:27:26.621Z,0.97
2023-01-22T03:29:53.170Z,0.91
2023-01-22T03:32:20.551Z,0.97
2023-01-22T03:34:47.329Z,1.02
2023-01-22T03:37:14.297Z,1.11
2023-01-22T03:39:41.421Z,1.11
2023-01-22T03:42:08.600Z,1.18
2023-01-22T03:44:35.098Z,1.22
2023-01-22T03:47:01.567Z,1.24
2023-01-22T03:49:28.296Z,1.20
2023-01-22T03:51:55.826Z,1.07
2023-01-22T03:54:22.274Z,0.95
2023-01-22T03:56:48.678Z,0.91
2023-01-22T03:59:15.142Z,0.98
2023-01-22T04:01:41.542Z,1.01
2023-01-22T04:04:07.961Z,0.99
2023-01-22T04:06:34.415Z,0.97
2023-01-22T04:09:00.858Z,1.03
2023-01-22T04:11:27.342Z,1.01
2023-01-22T04:13:55.116Z,0.91
2023-01-22T04:16:21.617Z,0.87
2023-01-22T04:18:48.112Z,0.94
2023-01-22T04:21:14.577Z,0.95
2023-01-22T04:23:40.984Z,0.88
2023-01-22T04:26:07.430Z,0.83
2023-01-22T04:28:33.964Z,0.87
2023-01-22T04:31:00.589Z,0.93
2023-01-22T04:33:27.108Z,0.86
2023-01-22T04:35:55.206Z,0.78
2023-01-22T04:38:21.696Z,0.73
2023-01-22T04:40:48.146Z,0.73
2023-01-22T04:43:14.677Z,0.71
2023-01-22T04:45:41.151Z,0.72
2023-01-22T04:48:08.540Z,0.74
2023-01-22T04:50:35.372Z,0.76
2023-01-22T04:53:02.238Z,0.85
2023-01-22T04:55:29.615Z,0.80
2023-01-22T04:57:57.565Z,0.84
2023-01-22T05:00:25.278Z,0.91
2023-01-22T05:02:56.746Z,0.93
2023-01-22T05:05:23.163Z,0.84
2023-01-22T05:07:49.767Z,0.83
2023-01-22T05:10:16.724Z,0.83
2023-01-22T05:12:43.229Z,0.86
2023-01-22T05:15:22.745Z,0.82
2023-01-22T05:17:49.936Z,0.85
2023-01-22T05:20:17.056Z,0.76
2023-01-22T05:22:44.055Z,0.75
2023-01-22T05:25:10.478Z,0.72
2023-01-22T05:27:36.914Z,0.65
2023-01-22T05:30:05.338Z,0.61
2023-01-22T05:32:31.803Z,0.59
2023-01-22T05:34:58.254Z,0.58
2023-01-22T05:37:24.783Z,0.53
2023-01-22T05:39:51.724Z,0.59
2023-01-22T05:42:18.175Z,0.61
2023-01-22T05:44:44.728Z,0.59
2023-01-22T05:47:13.373Z,0.59
2023-01-22T05:49:40.045Z,0.62
2023-01-22T05:52:06.719Z,0.69
2023-01-22T05:54:33.103Z,0.74
2023-01-22T05:56:59.541Z,0.68
2023-01-22T05:59:26.031Z,0.50
2023-01-22T06:01:52.457Z,0.55
2023-01-22T06:04:18.908Z,0.66
2023-01-22T06:06:45.329Z,0.71
2023-01-22T06:09:13.806Z,0.62
2023-01-22T06:11:40.380Z,0.71
2023-01-22T06:14:07.126Z,0.68
2023-01-22T06:16:34.076Z,0.59
2023-01-22T06:19:00.566Z,0.68
2023-01-22T06:21:27.000Z,0.70
2023-01-22T06:23:53.496Z,0.69
2023-01-22T06:26:20.119Z,0.66
2023-01-22T06:28:46.574Z,0.58
2023-01-22T06:31:13.083Z,0.60
2023-01-22T06:33:41.164Z,0.55
2023-01-22T06:36:08.156Z,0.53
2023-01-22T06:38:34.549Z,0.58
2023-01-22T06:41:01.119Z,0.69
2023-01-22T06:43:28.055Z,0.75
2023-01-22T06:45:54.871Z,0.70
2023-01-22T06:48:21.339Z,0.69
2023-01-22T06:50:47.810Z,0.69
2023-01-22T06:53:14.328Z,0.72
2023-01-22T06:55:40.894Z,0.67
2023-01-22T06:58:07.496Z,0.56
2023-01-22T07:00:33.930Z,0.45
2023-01-22T07:03:00.443Z,0.54
2023-01-22T07:05:27.424Z,0.59
2023-01-22T07:07:55.061Z,0.56
2023-01-22T07:10:22.401Z,0.50
2023-01-22T07:12:49.940Z,0.60
2023-01-22T07:15:16.479Z,0.63
2023-01-22T07:17:42.936Z,0.53
2023-01-22T07:20:10.120Z,0.40
2023-01-22T07:22:36.543Z,0.46
2023-01-22T07:25:03.358Z,0.44
2023-01-22T07:27:32.403Z,0.37
2023-01-22T07:29:58.858Z,0.36
2023-01-22T07:32:25.322Z,0.35
2023-01-22T07:34:51.920Z,0.35
2023-01-22T07:37:18.348Z,0.37
2023-01-22T07:39:44.764Z,0.41
2023-01-22T07:42:12.559Z,0.43
2023-01-22T07:44:40.525Z,0.44
2023-01-22T07:47:07.460Z,0.48
2023-01-22T07:49:34.152Z,0.54
2023-01-22T07:52:00.629Z,0.60
2023-01-22T07:54:27.300Z,0.61
2023-01-22T07:56:53.725Z,0.71
2023-01-22T07:59:20.322Z,0.69
2023-01-22T08:01:46.816Z,0.72
2023-01-22T08:04:13.320Z,0.80
2023-01-22T08:06:39.791Z,0.77
2023-01-22T08:09:06.647Z,0.81
2023-01-22T08:11:40.973Z,0.79
2023-01-22T08:14:09.431Z,0.83
2023-01-22T08:16:36.928Z,0.91
2023-01-22T08:19:03.562Z,0.97
2023-01-22T08:21:30.156Z,1.02
2023-01-22T08:23:56.570Z,1.01
2023-01-22T08:26:26.238Z,0.97
2023-01-22T08:29:07.391Z,0.98
2023-01-22T08:31:34.805Z,0.97
2023-01-22T08:34:01.848Z,1.02
2023-01-22T08:36:28.385Z,1.04
2023-01-22T08:38:56.329Z,1.20
2023-01-22T08:41:23.869Z,1.27
2023-01-22T08:43:52.813Z,1.30
2023-01-22T08:46:28.773Z,1.32
2023-01-22T08:48:55.711Z,1.36
2023-01-22T08:51:25.355Z,1.46
2023-01-22T08:53:53.525Z,1.43
2023-01-22T08:56:22.252Z,1.44
2023-01-22T08:58:51.530Z,1.47
2023-01-22T09:01:20.416Z,1.48
2023-01-22T09:03:48.820Z,1.44
2023-01-22T09:06:19.960Z,1.48
2023-01-22T09:08:46.410Z,1.53
2023-01-22T09:11:12.859Z,1.61
2023-01-22T09:13:39.540Z,1.75
2023-01-22T09:16:16.423Z,1.83
2023-01-22T09:18:42.858Z,1.87
2023-01-22T09:23:57.038Z,2.00
2023-01-22T09:26:23.839Z,2.05
2023-01-22T09:28:50.478Z,2.16
2023-01-22T09:31:17.499Z,2.19
2023-01-22T09:33:44.010Z,2.34
2023-01-22T09:36:13.259Z,2.53
2023-01-22T09:38:41.126Z,2.64
2023-01-22T09:41:31.923Z,2.70
2023-01-22T09:44:20.134Z,2.81
2023-01-22T09:46:58.301Z,2.87
2023-01-22T09:49:35.821Z,2.85
2023-01-22T09:52:05.416Z,2.95
2023-01-22T09:54:33.047Z,3.04
2023-01-22T09:57:04.226Z,3.20
2023-01-22T09:59:40.548Z,3.31
2023-01-22T10:02:33.989Z,3.40
2023-01-22T10:05:31.572Z,3.46
2023-01-22T10:08:20.214Z,3.52
2023-01-22T10:10:46.996Z,3.59
2023-01-22T10:13:22.868Z,3.65
2023-01-22T10:15:51.844Z,3.64
2023-01-22T10:18:43.085Z,3.65
2023-01-22T10:21:28.361Z,3.75
2023-01-22T10:23:58.208Z,3.79
2023-01-22T10:26:41.524Z,3.86
2023-01-22T10:29:33.176Z,3.90
2023-01-22T10:32:05.685Z,3.86
2023-01-22T10:34:35.877Z,3.93
2023-01-22T10:37:09.438Z,4.02
2023-01-22T10:39:44.090Z,4.05
2023-01-22T10:42:25.645Z,4.07
2023-01-22T10:44:58.100Z,4.13
2023-01-22T10:47:27.638Z,4.18
2023-01-22T10:50:14.328Z,4.21
2023-01-22T10:53:15.039Z,4.29
2023-01-22T10:55:42.655Z,4.36
2023-01-22T10:58:16.859Z,4.40
2023-01-22T11:00:51.923Z,4.42
2023-01-22T11:03:24.225Z,4.46
2023-01-22T11:05:58.226Z,4.48
2023-01-22T11:08:30.468Z,4.56
2023-01-22T11:11:03.363Z,4.57
2023-01-22T11:13:38.487Z,4.60
2023-01-22T11:16:16.457Z,4.61
2023-01-22T11:18:57.681Z,4.64
2023-01-22T11:21:29.524Z,4.68
2023-01-22T11:24:02.469Z,4.71
2023-01-22T11:26:28.853Z,4.78
2023-01-22T11:29:17.016Z,4.90
2023-01-22T11:32:01.818Z,5.02
2023-01-22T11:35:10.420Z,5.00
2023-01-22T11:37:48.764Z,5.07
2023-01-22T11:40:31.905Z,5.11
2023-01-22T11:43:20.584Z,5.18
2023-01-22T11:45:56.982Z,5.24
2023-01-22T11:48:40.743Z,5.29
2023-01-22T11:51:10.459Z,5.35
2023-01-22T11:53:43.373Z,5.36
2023-01-22T11:56:18.909Z,5.53
2023-01-22T11:59:16.126Z,5.57
2023-01-22T12:02:05.222Z,5.55
2023-01-22T12:04:37.680Z,5.47
2023-01-22T12:07:30.791Z,5.43
2023-01-22T12:10:11.982Z,5.43
2023-01-22T12:12:52.024Z,5.58
2023-01-22T12:15:30.291Z,5.63
2023-01-22T12:18:34.561Z,5.66
2023-01-22T12:21:30.211Z,5.71
2023-01-22T12:24:15.439Z,5.69
2023-01-22T12:26:51.063Z,5.56
2023-01-22T12:29:32.267Z,5.48
2023-01-22T12:32:19.275Z,5.45
2023-01-22T12:34:55.217Z,5.47
2023-01-22T12:37:29.187Z,5.49
2023-01-22T12:40:21.560Z,5.51
2023-01-22T12:43:00.341Z,5.51
2023-01-22T12:45:33.342Z,5.51
2023-01-22T12:48:23.370Z,5.54
2023-01-22T12:51:01.693Z,5.57
2023-01-22T12:53:38.824Z,5.55
2023-01-22T12:56:12.534Z,5.52
2023-01-22T12:58:58.694Z,5.53
2023-01-22T13:01:43.681Z,5.52
2023-01-22T13:04:12.487Z,5.61
2023-01-22T13:06:42.399Z,5.64
2023-01-22T13:09:29.189Z,5.73
2023-01-22T13:11:55.784Z,6.41
2023-01-22T13:14:32.860Z,6.30
2023-01-22T13:17:06.977Z,6.33
2023-01-22T13:19:49.970Z,6.34
2023-01-22T13:22:23.631Z,6.53
2023-01-22T13:24:57.861Z,6.42
2023-01-22T13:27:31.617Z,6.53
2023-01-22T13:30:18.960Z,6.95
2023-01-22T13:32:46.032Z,7.22
2023-01-22T13:35:20.680Z,7.66
2023-01-22T13:37:51.258Z,7.13
2023-01-22T13:40:27.855Z,7.30
2023-01-22T13:42:55.667Z,7.65
2023-01-22T13:45:25.879Z,7.37
2023-01-22T13:48:16.432Z,7.15
2023-01-22T13:50:57.058Z,7.01
2023-01-22T13:53:32.784Z,6.79
2023-01-22T13:56:00.206Z,6.85
2023-01-22T13:58:48.793Z,6.79
2023-01-22T14:01:30.798Z,6.75
2023-01-22T14:04:07.391Z,6.67
2023-01-22T14:06:49.441Z,6.53
2023-01-22T14:09:30.634Z,6.36
2023-01-22T14:12:05.373Z,6.78
2023-01-22T14:14:40.021Z,7.15
2023-01-22T14:17:06.694Z,7.19
2023-01-22T14:19:33.570Z,6.75
2023-01-22T14:22:02.369Z,6.41
2023-01-22T14:24:30.546Z,6.18
2023-01-22T14:26:57.744Z,6.07
2023-01-22T14:29:24.170Z,5.96
2023-01-22T14:31:50.700Z,5.95
2023-01-22T14:34:17.361Z,5.83
2023-01-22T14:36:45.352Z,5.76
2023-01-22T14:39:11.783Z,5.74
2023-01-22T14:41:38.248Z,5.75
2023-01-22T14:44:05.201Z,5.76
2023-01-22T14:46:31.943Z,5.72
2023-01-22T14:49:01.682Z,5.67
2023-01-22T14:51:28.323Z,5.62
2023-01-22T14:53:54.833Z,5.55
2023-01-22T14:56:21.243Z,5.49
2023-01-22T14:58:49.607Z,5.43
2023-01-22T15:01:21.409Z,5.41
2023-01-22T15:03:48.656Z,5.35
2023-01-22T15:06:15.200Z,5.28
2023-01-22T15:08:41.734Z,5.20
2023-01-22T15:11:08.256Z,5.20
2023-01-22T15:13:34.946Z,5.11
2023-01-22T15:16:10.608Z,5.03
2023-01-22T15:18:45.654Z,5.01
2023-01-22T15:21:12.328Z,4.94
2023-01-22T15:23:41.932Z,4.88
2023-01-22T15:26:22.162Z,4.82
2023-01-22T15:28:48.654Z,4.73
2023-01-22T15:31:15.111Z,4.69
2023-01-22T15:33:41.565Z,4.61
2023-01-22T15:36:08.757Z,4.54
2023-01-22T15:38:35.393Z,4.45
2023-01-22T15:41:29.073Z,4.30
2023-01-22T15:44:00.922Z,4.21
2023-01-22T15:46:32.511Z,4.19
2023-01-22T15:48:59.764Z,4.15
2023-01-22T15:51:31.744Z,4.13
2023-01-22T15:54:01.895Z,4.14
2023-01-22T15:56:32.817Z,4.19
2023-01-22T15:58:59.761Z,4.25
2023-01-22T16:01:29.605Z,4.30
2023-01-22T16:03:56.870Z,4.24
2023-01-22T16:06:26.500Z,4.19
2023-01-22T16:08:54.868Z,4.13
2023-01-22T16:11:29.518Z,4.05
2023-01-22T16:14:00.534Z,4.00
2023-01-22T16:16:31.013Z,4.01
2023-01-22T16:19:02.256Z,4.05
2023-01-22T16:21:30.677Z,4.07
2023-01-22T16:23:59.617Z,4.01
2023-01-22T16:26:28.890Z,3.95
2023-01-22T16:28:59.514Z,3.88
2023-01-22T16:31:31.854Z,3.81
2023-01-22T16:34:18.234Z,3.76
2023-01-22T16:36:45.709Z,3.77
2023-01-22T16:39:21.693Z,3.73
2023-01-22T16:41:55.121Z,3.69
2023-01-22T16:44:27.583Z,3.63
2023-01-22T16:46:59.721Z,3.63
2023-01-22T16:49:31.325Z,3.66
2023-01-22T16:52:00.271Z,3.75
2023-01-22T16:54:31.888Z,3.72
2023-01-22T16:57:00.645Z,3.74
2023-01-22T16:59:27.930Z,3.71
2023-01-22T17:01:55.627Z,3.71
2023-01-22T17:04:22.141Z,3.75
2023-01-22T17:06:50.930Z,3.74
2023-01-22T17:09:20.454Z,3.75
2023-01-22T17:11:50.660Z,3.78
2023-01-22T17:14:19.130Z,3.77
2023-01-22T17:16:46.642Z,3.75
2023-01-22T17:19:13.088Z,3.67
2023-01-22T17:21:39.553Z,3.66
2023-01-22T17:24:06.591Z,3.70
2023-01-22T17:26:33.073Z,3.75
2023-01-22T17:28:59.649Z,3.72
2023-01-22T17:31:26.895Z,3.76
2023-01-22T17:33:55.361Z,3.69
2023-01-22T17:36:28.292Z,3.62
2023-01-22T17:38:56.406Z,3.62
2023-01-22T17:41:24.411Z,3.67
2023-01-22T17:43:52.424Z,3.70
2023-01-22T17:46:21.722Z,3.62
2023-01-22T17:48:49.903Z,3.54
2023-01-22T17:51:20.434Z,3.61
2023-01-22T17:53:48.245Z,3.69
2023-01-22T17:56:15.731Z,3.66
2023-01-22T17:58:44.867Z,3.58
2023-01-22T18:01:13.263Z,3.62
2023-01-22T18:03:39.659Z,3.59
2023-01-22T18:06:07.087Z,3.48
2023-01-22T18:08:36.287Z,3.46
2023-01-22T18:11:08.085Z,3.52
2023-01-22T18:13:35.525Z,3.56
2023-01-22T18:16:02.570Z,3.56
2023-01-22T18:18:29.127Z,3.48
2023-01-22T18:20:55.649Z,3.51
2023-01-22T18:23:22.217Z,3.60
2023-01-22T18:25:50.465Z,3.64
2023-01-22T18:28:18.260Z,3.63
2023-01-22T18:30:46.391Z,3.60
2023-01-22T18:33:14.794Z,3.62
2023-01-22T18:35:53.758Z,3.58
2023-01-22T18:38:20.758Z,3.54
2023-01-22T18:40:48.398Z,3.50
2023-01-22T18:43:14.907Z,3.51
2023-01-22T18:45:41.843Z,3.52
2023-01-22T18:48:14.296Z,3.50
2023-01-22T18:50:41.655Z,3.54
2023-01-22T18:53:09.529Z,3.58
2023-01-22T18:55:36.524Z,3.62
2023-01-22T18:58:34.116Z,3.62
2023-01-22T19:01:24.949Z,3.49
2023-01-22T19:03:54.466Z,3.43
2023-01-22T19:06:23.945Z,3.42
2023-01-22T19:09:08.948Z,3.45
2023-01-22T19:11:43.540Z,3.38
2023-01-22T19:14:13.572Z,3.37
2023-01-22T19:16:39.985Z,3.40
2023-01-22T19:19:11.183Z,3.31
2023-01-22T19:21:46.617Z,3.26
2023-01-22T19:24:15.311Z,3.23
2023-01-22T19:26:42.635Z,3.18
2023-01-22T19:29:17.079Z,3.24
2023-01-22T19:31:46.362Z,3.24
2023-01-22T19:34:16.489Z,3.16
2023-01-22T19:36:42.959Z,3.13
2023-01-22T19:39:12.444Z,3.17
2023-01-22T19:41:42.513Z,3.19
2023-01-22T19:44:10.816Z,3.19
2023-01-22T19:46:38.561Z,3.19
2023-01-22T19:49:06.282Z,3.20
2023-01-22T19:51:32.817Z,3.25
2023-01-22T19:54:00.529Z,3.20
2023-01-22T19:56:30.407Z,3.05
2023-01-22T19:59:05.774Z,2.98
2023-01-22T20:01:34.791Z,2.98
2023-01-22T20:04:01.336Z,2.94
2023-01-22T20:06:28.700Z,2.85
2023-01-22T20:08:56.389Z,2.83
2023-01-22T20:11:23.536Z,2.81
2023-01-22T20:13:49.959Z,2.81
2023-01-22T20:16:27.833Z,2.80
2023-01-22T20:18:55.627Z,2.81
2023-01-22T20:21:25.313Z,2.83
2023-01-22T20:23:51.845Z,2.85
2023-01-22T20:26:20.626Z,2.87
2023-01-22T20:28:48.108Z,2.91
2023-01-22T20:31:19.927Z,3.00
2023-01-22T20:33:46.641Z,3.05
2023-01-22T20:36:15.300Z,3.10
2023-01-22T20:38:46.202Z,3.08
2023-01-22T20:41:14.116Z,3.10
2023-01-22T20:43:43.069Z,3.11
2023-01-22T20:46:14.040Z,3.13
2023-01-22T20:48:41.495Z,3.11
2023-01-22T20:51:15.702Z,3.09
2023-01-22T20:53:43.182Z,3.05
2023-01-22T20:56:14.356Z,2.96
2023-01-22T20:58:41.303Z,2.87
2023-01-22T21:01:11.105Z,2.82
2023-01-22T21:03:37.628Z,2.73
2023-01-22T21:06:07.500Z,2.64
2023-01-22T21:08:35.195Z,2.65
2023-01-22T21:11:08.288Z,2.59
2023-01-22T21:13:35.423Z,2.59
2023-01-22T21:16:10.937Z,2.62
2023-01-22T21:18:41.420Z,2.55
2023-01-22T21:21:09.186Z,2.48
2023-01-22T21:23:36.715Z,2.48
2023-01-22T21:26:08.004Z,2.51
2023-01-22T21:28:35.760Z,2.54
2023-01-22T21:31:10.935Z,2.54
2023-01-22T21:33:38.707Z,2.48
2023-01-22T21:36:06.761Z,2.42
2023-01-22T21:38:33.772Z,2.38
2023-01-22T21:41:09.577Z,2.35
2023-01-22T21:43:54.592Z,2.17
2023-01-22T21:46:27.279Z,2.04
2023-01-22T21:48:59.411Z,2.03
2023-01-22T21:51:27.049Z,2.02
2023-01-22T21:53:57.660Z,1.87
2023-01-22T21:56:25.072Z,1.84
2023-01-22T21:58:51.502Z,1.76
2023-01-22T22:01:21.856Z,1.66
2023-01-22T22:03:48.568Z,1.67
2023-01-22T22:06:15.086Z,1.67
2023-01-22T22:08:43.511Z,1.72
2023-01-22T22:11:12.270Z,1.83
2023-01-22T22:13:38.913Z,1.84
2023-01-22T22:16:07.928Z,1.88
2023-01-22T22:18:34.890Z,1.93
2023-01-22T22:21:06.835Z,1.87
2023-01-22T22:23:35.175Z,1.78
2023-01-22T22:26:01.953Z,1.75
2023-01-22T22:28:29.590Z,1.64
2023-01-22T22:31:22.444Z,1.59
2023-01-22T22:33:50.885Z,1.65
2023-01-22T22:36:19.764Z,1.63
2023-01-22T22:38:46.704Z,1.53
2023-01-22T22:41:17.137Z,1.38
2023-01-22T22:43:48.200Z,1.48
2023-01-22T22:46:36.236Z,1.35
2023-01-22T22:49:03.498Z,1.28
2023-01-22T22:51:33.877Z,1.30
2023-01-22T22:54:16.021Z,1.44
2023-01-22T22:56:44.639Z,1.63
2023-01-22T22:59:11.144Z,1.51
2023-01-22T23:01:37.879Z,1.35
2023-01-22T23:04:08.214Z,1.27
2023-01-22T23:06:36.288Z,1.19
2023-01-22T23:09:06.458Z,1.12
2023-01-22T23:11:34.698Z,1.09
2023-01-22T23:14:02.602Z,1.22
2023-01-22T23:16:31.921Z,1.33
2023-01-22T23:19:00.226Z,1.27
2023-01-22T23:21:27.430Z,1.32
2023-01-22T23:23:54.581Z,1.40
2023-01-22T23:26:27.982Z,1.44
2023-01-22T23:29:00.343Z,1.50
2023-01-22T23:31:27.306Z,1.49
2023-01-22T23:33:55.413Z,1.43
2023-01-22T23:36:22.790Z,1.41
2023-01-22T23:38:49.663Z,1.39
2023-01-22T23:41:17.833Z,1.44
2023-01-22T23:43:44.635Z,1.49
2023-01-22T23:46:30.908Z,1.51
2023-01-22T23:48:59.005Z,1.59
2023-01-22T23:51:26.199Z,1.63
2023-01-22T23:53:53.586Z,1.64
2023-01-22T23:56:22.302Z,1.62
2023-01-22T23:58:49.270Z,1.63
